createdAt,value
2019-03-11T00:01:52.671Z,4.13
2019-03-11T00:06:58.501Z,4.24
2019-03-11T00:12:04.260Z,4.15
2019-03-11T00:17:10.009Z,4.06
2019-03-11T00:22:15.798Z,4.01
2019-03-11T00:27:21.558Z,4.10
2019-03-11T00:32:27.292Z,4.10
2019-03-11T00:37:33.195Z,4.07
2019-03-11T00:42:39.038Z,4.04
2019-03-11T00:47:44.754Z,4.08
2019-03-11T00:52:50.524Z,4.15
2019-03-11T00:57:56.185Z,4.10
2019-03-11T01:03:02.308Z,3.99
2019-03-11T01:08:08.018Z,4.12
2019-03-11T01:13:13.799Z,4.15
2019-03-11T01:18:19.579Z,4.29
2019-03-11T01:23:25.436Z,4.33
2019-03-11T01:28:31.150Z,4.41
2019-03-11T01:33:36.954Z,4.30
2019-03-11T01:38:42.639Z,4.24
2019-03-11T01:43:48.391Z,4.32
2019-03-11T01:48:54.180Z,4.09
2019-03-11T01:53:59.874Z,4.18
2019-03-11T01:59:05.522Z,4.17
2019-03-11T02:04:11.220Z,4.21
2019-03-11T02:09:17.011Z,4.05
2019-03-11T02:14:22.805Z,3.91
2019-03-11T02:19:28.647Z,3.80
2019-03-11T02:24:34.414Z,3.85
2019-03-11T02:29:41.406Z,3.69
2019-03-11T02:34:47.187Z,3.87
2019-03-11T02:39:52.895Z,3.83
2019-03-11T02:44:58.557Z,3.93
2019-03-11T02:50:04.730Z,3.84
2019-03-11T02:55:10.647Z,3.87
2019-03-11T03:00:20.612Z,3.78
2019-03-11T03:05:27.907Z,3.75
2019-03-11T03:10:33.718Z,3.72
2019-03-11T03:15:39.490Z,3.54
2019-03-11T03:20:45.260Z,3.62
2019-03-11T03:25:51.053Z,3.62
2019-03-11T03:30:56.818Z,3.51
2019-03-11T03:36:02.679Z,3.57
2019-03-11T03:41:08.869Z,3.41
2019-03-11T03:46:19.316Z,3.22
2019-03-11T03:51:22.090Z,3.24
2019-03-11T03:56:27.944Z,3.08
2019-03-11T04:01:33.686Z,3.12
2019-03-11T04:06:39.577Z,2.98
2019-03-11T04:11:45.342Z,3.13
2019-03-11T04:16:51.000Z,3.18
2019-03-11T04:21:56.756Z,2.99
2019-03-11T04:27:05.382Z,3.02
2019-03-11T04:32:11.032Z,2.99
2019-03-11T04:37:16.797Z,3.08
2019-03-11T04:42:22.493Z,3.23
2019-03-11T04:47:28.329Z,3.22
2019-03-11T04:52:34.002Z,3.28
2019-03-11T04:57:42.674Z,3.14
2019-03-11T05:02:48.557Z,3.06
2019-03-11T05:07:54.379Z,2.97
2019-03-11T05:13:00.165Z,2.97
2019-03-11T05:18:05.838Z,3.13
2019-03-11T05:23:11.518Z,3.21
2019-03-11T05:28:17.230Z,3.32
2019-03-11T05:33:22.939Z,3.06
2019-03-11T05:38:28.683Z,3.01
2019-03-11T05:43:34.392Z,3.32
2019-03-11T05:48:40.113Z,3.15
2019-03-11T05:53:45.818Z,3.10
2019-03-11T05:58:51.840Z,3.38
2019-03-11T06:03:58.017Z,3.28
2019-03-11T06:09:05.542Z,3.26
2019-03-11T06:14:12.019Z,3.51
2019-03-11T06:19:17.793Z,3.43
2019-03-11T06:24:23.663Z,3.52
2019-03-11T06:29:30.752Z,3.71
2019-03-11T06:34:36.878Z,3.69
2019-03-11T06:39:42.707Z,3.94
2019-03-11T06:44:48.585Z,3.87
2019-03-11T06:49:54.412Z,3.76
2019-03-11T06:55:00.426Z,3.83
2019-03-11T07:00:17.489Z,3.76
2019-03-11T07:05:23.264Z,3.99
2019-03-11T07:10:29.076Z,4.17
2019-03-11T07:15:34.844Z,4.18
2019-03-11T07:20:42.040Z,4.11
2019-03-11T07:25:47.707Z,3.98
2019-03-11T07:30:53.468Z,4.42
2019-03-11T07:35:59.152Z,3.84
2019-03-11T07:41:04.927Z,3.77
2019-03-11T07:46:10.751Z,3.94
2019-03-11T07:51:16.486Z,3.84
2019-03-11T07:56:22.185Z,4.23
2019-03-11T08:01:27.898Z,3.96
2019-03-11T08:06:33.562Z,3.98
2019-03-11T08:11:39.367Z,4.17
2019-03-11T08:16:45.130Z,4.15
2019-03-11T08:21:50.910Z,4.50
2019-03-11T08:26:56.661Z,4.49
2019-03-11T08:32:02.498Z,4.77
2019-03-11T08:37:08.277Z,4.87
2019-03-11T08:42:14.044Z,4.51
2019-03-11T08:47:19.795Z,4.37
2019-03-11T08:52:25.496Z,4.56
2019-03-11T08:57:31.213Z,4.79
2019-03-11T09:02:36.978Z,5.18
2019-03-11T09:07:42.711Z,4.62
2019-03-11T09:12:48.574Z,4.85
2019-03-11T09:17:54.335Z,4.33
2019-03-11T09:23:00.173Z,3.89
2019-03-11T09:28:06.957Z,4.37
2019-03-11T09:33:12.716Z,4.07
2019-03-11T09:38:18.472Z,4.28
2019-03-11T09:43:24.222Z,3.82
2019-03-11T09:48:29.930Z,4.18
2019-03-11T09:53:35.695Z,4.26
2019-03-11T09:58:41.489Z,3.98
2019-03-11T10:03:47.199Z,4.14
2019-03-11T10:08:52.949Z,4.09
2019-03-11T10:13:58.700Z,4.12
2019-03-11T10:19:04.593Z,3.73
2019-03-11T10:24:10.354Z,3.89
2019-03-11T10:29:16.121Z,4.08
2019-03-11T10:34:21.805Z,4.35
2019-03-11T10:39:27.506Z,4.11
2019-03-11T10:44:33.591Z,4.19
2019-03-11T10:49:39.356Z,4.18
2019-03-11T10:54:44.977Z,3.77
2019-03-11T10:59:50.766Z,4.17
2019-03-11T11:04:56.546Z,4.02
2019-03-11T11:10:02.331Z,4.14
2019-03-11T11:15:15.174Z,4.54
2019-03-11T11:20:21.676Z,4.54
2019-03-11T11:25:29.183Z,4.31
2019-03-11T11:30:34.959Z,4.18
2019-03-11T11:35:40.713Z,4.55
2019-03-11T11:40:46.400Z,4.64
2019-03-11T11:45:52.138Z,4.93
2019-03-11T11:50:58.969Z,5.48
2019-03-11T11:56:04.751Z,4.87
2019-03-11T12:01:10.446Z,4.73
2019-03-11T12:06:16.288Z,4.91
2019-03-11T12:11:22.130Z,4.68
2019-03-11T12:16:27.876Z,4.96
2019-03-11T12:21:33.600Z,4.69
2019-03-11T12:26:39.309Z,4.68
2019-03-11T12:31:45.027Z,4.59
2019-03-11T12:36:50.944Z,4.74
2019-03-11T12:41:56.646Z,4.58
2019-03-11T12:47:02.422Z,4.56
2019-03-11T12:52:08.203Z,4.76
2019-03-11T12:57:14.003Z,5.03
2019-03-11T13:02:19.768Z,5.31
2019-03-11T13:07:25.430Z,5.26
2019-03-11T13:12:31.106Z,5.06
2019-03-11T13:17:36.905Z,5.32
2019-03-11T13:22:42.669Z,5.02
2019-03-11T13:27:48.427Z,5.29
2019-03-11T13:32:54.201Z,5.34
2019-03-11T13:38:00.209Z,5.56
2019-03-11T13:43:06.144Z,5.76
2019-03-11T13:48:11.958Z,5.59
2019-03-11T13:53:17.808Z,5.62
2019-03-11T13:58:23.601Z,6.02
2019-03-11T14:03:29.386Z,6.07
2019-03-11T14:08:35.148Z,5.68
2019-03-11T14:13:40.926Z,5.94
2019-03-11T14:18:46.730Z,5.92
2019-03-11T14:23:52.563Z,5.65
2019-03-11T14:29:00.536Z,5.44
2019-03-11T14:34:06.306Z,5.30
2019-03-11T14:39:12.580Z,4.26
2019-03-11T14:44:18.762Z,4.08
2019-03-11T14:49:24.479Z,4.77
2019-03-11T14:54:30.169Z,4.63
2019-03-11T14:59:35.961Z,5.10
2019-03-11T15:04:41.726Z,5.53
2019-03-11T15:09:51.414Z,5.05
2019-03-11T15:14:55.068Z,4.99
2019-03-11T15:20:00.808Z,4.99
2019-03-11T15:25:09.197Z,5.02
2019-03-11T15:30:21.958Z,5.10
2019-03-11T15:35:27.805Z,5.07
2019-03-11T15:40:33.582Z,5.55
2019-03-11T15:45:39.368Z,5.18
2019-03-11T15:50:45.274Z,4.93
2019-03-11T15:55:51.239Z,4.96
2019-03-11T16:00:57.003Z,5.02
2019-03-11T16:06:02.875Z,5.26
2019-03-11T16:11:08.630Z,4.86
2019-03-11T16:16:14.428Z,4.44
2019-03-11T16:21:20.182Z,4.46
2019-03-11T16:26:25.953Z,4.61
2019-03-11T16:31:31.949Z,4.65
2019-03-11T16:36:37.857Z,4.58
2019-03-11T16:41:43.694Z,4.44
2019-03-11T16:46:49.477Z,4.53
2019-03-11T16:51:55.296Z,4.57
2019-03-11T16:57:01.072Z,4.52
2019-03-11T17:02:06.870Z,4.77
2019-03-11T17:07:12.618Z,4.68
2019-03-11T17:12:18.404Z,4.61
2019-03-11T17:17:24.150Z,4.71
2019-03-11T17:22:29.910Z,4.79
2019-03-11T17:27:35.661Z,4.73
2019-03-11T17:32:42.838Z,4.68
2019-03-11T17:37:48.576Z,4.62
2019-03-11T17:42:54.542Z,4.69
2019-03-11T17:48:00.244Z,4.57
2019-03-11T17:53:06.062Z,4.32
2019-03-11T17:58:11.832Z,4.27
2019-03-11T18:03:17.622Z,4.36
2019-03-11T18:08:23.385Z,4.31
2019-03-11T18:13:29.385Z,4.48
2019-03-11T18:18:35.118Z,4.20
2019-03-11T18:23:40.857Z,4.26
2019-03-11T18:28:46.618Z,4.12
2019-03-11T18:33:52.499Z,4.13
2019-03-11T18:38:58.247Z,4.14
2019-03-11T18:44:04.270Z,4.06
2019-03-11T18:49:10.031Z,3.76
2019-03-11T18:54:15.864Z,3.93
2019-03-11T18:59:21.681Z,3.81
2019-03-11T19:04:27.507Z,3.52
2019-03-11T19:09:33.226Z,3.62
2019-03-11T19:14:38.960Z,3.46
2019-03-11T19:19:46.585Z,3.49
2019-03-11T19:24:53.657Z,3.41
2019-03-11T19:29:59.597Z,3.37
2019-03-11T19:35:07.245Z,3.34
2019-03-11T19:40:15.891Z,3.16
2019-03-11T19:45:21.694Z,3.03
2019-03-11T19:50:27.516Z,3.09
2019-03-11T19:55:33.678Z,2.91
2019-03-11T20:00:39.529Z,2.92
2019-03-11T20:05:45.366Z,2.88
2019-03-11T20:10:51.615Z,2.83
2019-03-11T20:15:57.530Z,2.88
2019-03-11T20:21:03.497Z,2.74
2019-03-11T20:26:09.465Z,2.66
2019-03-11T20:31:16.490Z,2.81
2019-03-11T20:36:24.910Z,2.78
2019-03-11T20:41:31.843Z,2.70
2019-03-11T20:46:37.929Z,2.59
2019-03-11T20:51:43.717Z,2.64
2019-03-11T20:56:49.701Z,2.65
2019-03-11T21:01:55.525Z,2.60
2019-03-11T21:07:01.378Z,2.73
2019-03-11T21:12:07.276Z,2.70
2019-03-11T21:17:24.962Z,2.85
2019-03-11T21:22:20.634Z,2.97
2019-03-11T21:27:26.540Z,3.02
2019-03-11T21:32:32.442Z,3.00
2019-03-11T21:37:38.433Z,2.87
2019-03-11T21:42:44.235Z,2.73
2019-03-11T21:47:51.171Z,2.79
2019-03-11T21:52:57.181Z,2.65
2019-03-11T21:58:12.553Z,2.75
2019-03-11T22:03:10.355Z,2.63
2019-03-11T22:08:16.095Z,2.65
2019-03-11T22:13:21.725Z,2.48
2019-03-11T22:18:27.436Z,2.56
2019-03-11T22:23:33.240Z,2.43
2019-03-11T22:28:38.972Z,2.34
2019-03-11T22:33:44.683Z,2.19
2019-03-11T22:38:50.421Z,2.35
2019-03-11T22:43:56.103Z,2.30
2019-03-11T22:49:02.935Z,2.30
2019-03-11T22:54:08.747Z,2.24
2019-03-11T22:59:14.550Z,2.21
2019-03-11T23:04:20.309Z,2.22
2019-03-11T23:09:26.266Z,2.22
2019-03-11T23:14:32.036Z,2.06
2019-03-11T23:19:37.735Z,1.96
2019-03-11T23:24:43.406Z,2.05
2019-03-11T23:29:49.092Z,1.86
2019-03-11T23:34:55.337Z,1.90
2019-03-11T23:40:01.039Z,1.82
2019-03-11T23:45:10.059Z,1.75
2019-03-11T23:50:19.208Z,1.64
2019-03-11T23:55:23.834Z,1.68
